createdAt,value
2023-02-02T00:02:03.323Z,3.45
2023-02-02T00:04:33.052Z,4.18
2023-02-02T00:07:02.713Z,3.63
2023-02-02T00:09:33.099Z,2.95
2023-02-02T00:12:02.628Z,3.13
2023-02-02T00:14:30.936Z,3.80
2023-02-02T00:16:59.242Z,3.10
2023-02-02T00:19:30.076Z,3.88
2023-02-02T00:21:58.269Z,3.03
2023-02-02T00:24:26.239Z,3.60
2023-02-02T00:26:55.650Z,3.85
2023-02-02T00:31:53.505Z,3.38
2023-02-02T00:34:22.329Z,3.50
2023-02-02T00:36:51.342Z,3.90
2023-02-02T00:39:21.049Z,4.10
2023-02-02T00:41:49.475Z,4.57
2023-02-02T00:44:34.443Z,2.97
2023-02-02T00:47:03.905Z,3.40
2023-02-02T00:49:32.061Z,4.15
2023-02-02T00:52:00.326Z,2.90
2023-02-02T00:54:28.456Z,4.30
2023-02-02T00:56:56.179Z,4.55
2023-02-02T00:59:23.902Z,5.03
2023-02-02T01:01:51.693Z,4.28
2023-02-02T01:04:20.794Z,4.32
2023-02-02T01:06:48.632Z,5.13
2023-02-02T01:09:16.327Z,3.70
2023-02-02T01:11:44.053Z,3.47
2023-02-02T01:14:11.845Z,2.75
2023-02-02T01:16:39.643Z,3.13
2023-02-02T01:19:07.798Z,2.95
2023-02-02T01:21:36.966Z,3.55
2023-02-02T01:24:04.861Z,3.90
2023-02-02T01:26:32.682Z,3.35
2023-02-02T01:29:00.564Z,3.58
2023-02-02T01:31:28.694Z,3.67
2023-02-02T01:33:56.488Z,3.88
2023-02-02T01:36:25.234Z,3.63
2023-02-02T01:38:54.396Z,3.45
2023-02-02T01:41:25.598Z,3.65
2023-02-02T01:43:56.705Z,3.78
2023-02-02T01:46:26.846Z,3.75
2023-02-02T01:49:00.928Z,3.47
2023-02-02T01:51:33.427Z,3.00
2023-02-02T01:54:06.315Z,3.13
2023-02-02T01:56:38.486Z,3.10
2023-02-02T01:59:07.004Z,3.72
2023-02-02T02:01:34.881Z,3.23
2023-02-02T02:04:02.948Z,2.72
2023-02-02T02:06:32.935Z,2.72
2023-02-02T02:09:06.635Z,3.25
2023-02-02T02:11:37.698Z,3.45
2023-02-02T02:14:33.032Z,2.92
2023-02-02T02:17:26.256Z,2.75
2023-02-02T02:20:50.756Z,4.03
2023-02-02T02:24:22.783Z,2.70
2023-02-02T02:27:03.969Z,3.67
2023-02-02T02:29:59.576Z,4.07
2023-02-02T02:32:35.856Z,2.80
2023-02-02T02:35:08.223Z,3.20
2023-02-02T02:37:43.569Z,2.85
2023-02-02T02:40:20.602Z,3.42
2023-02-02T02:42:54.517Z,3.17
2023-02-02T02:45:24.262Z,2.65
2023-02-02T02:47:54.607Z,3.08
2023-02-02T02:50:22.854Z,3.70
2023-02-02T02:52:55.762Z,3.08
2023-02-02T02:55:25.739Z,3.28
2023-02-02T02:58:03.257Z,2.13
2023-02-02T03:00:46.313Z,3.75
2023-02-02T03:03:26.060Z,3.95
2023-02-02T03:05:57.194Z,4.07
2023-02-02T03:08:31.319Z,3.10
2023-02-02T03:11:00.400Z,4.22
2023-02-02T03:13:28.996Z,3.38
2023-02-02T03:15:57.014Z,3.28
2023-02-02T03:18:29.514Z,3.85
2023-02-02T03:20:57.898Z,3.78
2023-02-02T03:23:26.044Z,3.00
2023-02-02T03:25:54.272Z,2.85
2023-02-02T03:28:24.027Z,3.22
2023-02-02T03:30:53.176Z,3.00
2023-02-02T03:33:21.253Z,3.75
2023-02-02T03:35:50.703Z,3.40
2023-02-02T03:40:46.155Z,2.55
2023-02-02T03:43:13.916Z,2.92
2023-02-02T03:45:41.710Z,2.38
2023-02-02T03:48:09.473Z,3.17
2023-02-02T03:50:38.108Z,3.60
2023-02-02T03:53:07.265Z,2.70
2023-02-02T03:55:35.285Z,3.50
2023-02-02T03:58:03.095Z,2.63
2023-02-02T04:00:30.904Z,2.90
2023-02-02T04:02:58.652Z,2.53
2023-02-02T04:05:27.820Z,2.65
2023-02-02T04:07:55.655Z,3.13
2023-02-02T04:10:24.799Z,2.90
2023-02-02T04:12:52.551Z,2.72
2023-02-02T04:15:20.291Z,2.80
2023-02-02T04:17:48.001Z,2.88
2023-02-02T04:20:15.712Z,2.17
2023-02-02T04:22:43.485Z,2.55
2023-02-02T04:25:11.265Z,2.60
2023-02-02T04:27:40.385Z,2.90
2023-02-02T04:30:09.935Z,3.20
2023-02-02T04:32:37.661Z,2.85
2023-02-02T04:35:05.970Z,3.05
2023-02-02T04:37:33.715Z,2.95
2023-02-02T04:40:01.419Z,3.33
2023-02-02T04:42:32.076Z,2.60
2023-02-02T04:45:01.162Z,3.17
2023-02-02T04:47:29.032Z,2.60
2023-02-02T04:49:56.796Z,3.20
2023-02-02T04:52:24.587Z,3.13
2023-02-02T04:54:52.358Z,3.45
2023-02-02T04:57:20.117Z,2.75
2023-02-02T04:59:47.843Z,3.10
2023-02-02T05:02:16.967Z,3.20
2023-02-02T05:04:44.858Z,2.97
2023-02-02T05:07:12.631Z,2.50
2023-02-02T05:09:40.384Z,3.22
2023-02-02T05:12:08.261Z,4.70
2023-02-02T05:14:36.004Z,3.00
2023-02-02T05:17:03.724Z,2.50
2023-02-02T05:19:32.894Z,2.72
2023-02-02T05:22:00.652Z,2.42
2023-02-02T05:24:28.385Z,2.65
2023-02-02T05:27:00.375Z,2.63
2023-02-02T05:29:28.505Z,3.58
2023-02-02T05:31:56.338Z,2.60
2023-02-02T05:34:24.456Z,2.58
2023-02-02T05:36:53.579Z,2.92
2023-02-02T05:39:21.325Z,2.65
2023-02-02T05:41:49.087Z,2.67
2023-02-02T05:44:16.881Z,3.60
2023-02-02T05:46:45.581Z,3.53
2023-02-02T05:49:14.892Z,2.72
2023-02-02T05:51:45.844Z,2.97
2023-02-02T05:54:19.343Z,3.03
2023-02-02T05:56:47.485Z,2.65
2023-02-02T05:59:15.337Z,3.30
2023-02-02T06:01:43.247Z,3.95
2023-02-02T06:04:11.117Z,3.15
2023-02-02T06:06:39.100Z,2.75
2023-02-02T06:09:07.031Z,2.63
2023-02-02T06:11:36.559Z,2.90
2023-02-02T06:14:04.335Z,3.63
2023-02-02T06:16:32.166Z,3.53
2023-02-02T06:18:59.946Z,2.55
2023-02-02T06:21:31.029Z,2.50
2023-02-02T06:23:59.454Z,3.15
2023-02-02T06:26:27.443Z,2.97
2023-02-02T06:28:56.614Z,3.53
2023-02-02T06:31:25.035Z,3.10
2023-02-02T06:33:57.500Z,2.35
2023-02-02T06:36:26.660Z,2.72
2023-02-02T06:38:56.301Z,3.22
2023-02-02T06:41:24.948Z,3.40
2023-02-02T06:43:52.899Z,2.92
2023-02-02T06:46:22.037Z,2.95
2023-02-02T06:48:50.030Z,2.78
2023-02-02T06:51:17.926Z,3.08
2023-02-02T06:53:48.650Z,3.45
2023-02-02T06:56:16.744Z,2.50
2023-02-02T06:58:44.558Z,3.13
2023-02-02T07:01:14.563Z,3.90
2023-02-02T07:03:44.038Z,3.58
2023-02-02T07:08:43.392Z,2.75
2023-02-02T07:11:15.433Z,3.17
2023-02-02T07:13:44.407Z,3.05
2023-02-02T07:16:13.017Z,2.65
2023-02-02T07:18:42.800Z,3.85
2023-02-02T07:21:17.725Z,3.85
2023-02-02T07:23:45.517Z,3.03
2023-02-02T07:26:14.696Z,3.47
2023-02-02T07:28:42.906Z,3.42
2023-02-02T07:31:15.341Z,3.20
2023-02-02T07:33:43.430Z,2.95
2023-02-02T07:36:13.033Z,4.32
2023-02-02T07:38:40.893Z,4.93
2023-02-02T07:41:08.731Z,3.85
2023-02-02T07:43:36.978Z,3.08
2023-02-02T07:46:08.300Z,3.95
2023-02-02T07:48:36.439Z,4.00
2023-02-02T07:51:07.935Z,3.38
2023-02-02T07:53:37.256Z,4.07
2023-02-02T07:58:37.028Z,3.15
2023-02-02T08:01:06.221Z,3.33
2023-02-02T08:03:34.684Z,3.42
2023-02-02T08:06:09.701Z,3.17
2023-02-02T08:08:38.945Z,4.13
2023-02-02T08:11:09.010Z,3.80
2023-02-02T08:13:37.441Z,3.42
2023-02-02T08:16:05.923Z,3.67
2023-02-02T08:18:33.965Z,4.17
2023-02-02T08:21:02.023Z,4.05
2023-02-02T08:23:29.829Z,3.95
2023-02-02T08:26:08.431Z,3.60
2023-02-02T08:28:36.404Z,3.70
2023-02-02T08:31:08.996Z,3.97
2023-02-02T08:33:38.540Z,4.47
2023-02-02T08:36:09.267Z,4.75
2023-02-02T08:38:37.093Z,4.40
2023-02-02T08:41:10.649Z,3.70
2023-02-02T08:43:38.444Z,3.78
2023-02-02T08:46:07.036Z,4.63
2023-02-02T08:48:35.619Z,3.00
2023-02-02T08:51:04.070Z,3.53
2023-02-02T08:53:32.804Z,3.67
2023-02-02T08:56:01.683Z,3.60
2023-02-02T08:58:31.910Z,3.70
2023-02-02T09:01:06.639Z,4.22
2023-02-02T09:03:34.901Z,3.47
2023-02-02T09:06:07.131Z,4.38
2023-02-02T09:08:35.154Z,4.30
2023-02-02T09:11:07.373Z,3.83
2023-02-02T09:13:37.592Z,3.75
2023-02-02T09:16:07.658Z,3.85
2023-02-02T09:18:35.484Z,3.95
2023-02-02T09:21:05.073Z,3.70
2023-02-02T09:23:33.400Z,3.08
2023-02-02T09:26:11.264Z,4.13
2023-02-02T09:28:43.843Z,3.90
2023-02-02T09:31:11.981Z,3.60
2023-02-02T09:33:39.858Z,4.43
2023-02-02T09:36:10.529Z,3.75
2023-02-02T09:38:39.154Z,4.05
2023-02-02T09:41:27.095Z,4.50
2023-02-02T09:44:05.156Z,3.63
2023-02-02T09:46:43.908Z,4.53
2023-02-02T09:49:14.624Z,4.32
2023-02-02T09:51:47.321Z,3.25
2023-02-02T09:54:20.767Z,3.08
2023-02-02T09:56:54.576Z,3.08
2023-02-02T09:59:26.702Z,3.88
2023-02-02T10:01:58.244Z,3.90
2023-02-02T10:04:33.066Z,3.10
2023-02-02T10:07:09.152Z,3.40
2023-02-02T10:09:43.531Z,3.45
2023-02-02T10:12:25.673Z,3.75
2023-02-02T10:15:00.742Z,3.28
2023-02-02T10:17:39.853Z,2.90
2023-02-02T10:20:18.859Z,3.75
2023-02-02T10:22:48.652Z,3.53
2023-02-02T10:25:17.676Z,3.10
2023-02-02T10:27:55.732Z,3.15
2023-02-02T10:30:30.876Z,3.17
2023-02-02T10:33:06.253Z,3.15
2023-02-02T10:35:40.388Z,2.80
2023-02-02T10:38:19.832Z,2.88
2023-02-02T10:40:59.682Z,2.67
2023-02-02T10:43:49.640Z,2.90
2023-02-02T10:46:25.086Z,2.90
2023-02-02T10:49:02.021Z,3.15
2023-02-02T10:51:30.792Z,2.72
2023-02-02T10:54:05.007Z,3.13
2023-02-02T10:56:38.592Z,2.95
2023-02-02T10:59:10.792Z,2.90
2023-02-02T11:01:39.998Z,3.03
2023-02-02T11:04:25.672Z,3.25
2023-02-02T11:06:53.524Z,2.95
2023-02-02T11:09:23.999Z,2.63
2023-02-02T11:11:55.505Z,2.05
2023-02-02T11:14:44.550Z,2.78
2023-02-02T11:17:21.078Z,2.20
2023-02-02T11:19:49.781Z,2.60
2023-02-02T11:22:33.882Z,2.80
2023-02-02T11:25:04.972Z,2.65
2023-02-02T11:27:34.723Z,3.00
2023-02-02T11:30:13.061Z,3.00
2023-02-02T11:32:42.214Z,3.27
2023-02-02T11:35:22.224Z,2.53
2023-02-02T11:37:58.602Z,2.45
2023-02-02T11:40:32.646Z,1.95
2023-02-02T11:43:02.426Z,2.53
2023-02-02T11:45:36.224Z,2.50
2023-02-02T11:48:09.362Z,2.20
2023-02-02T11:50:37.737Z,2.58
2023-02-02T11:53:05.604Z,2.40
2023-02-02T11:55:33.787Z,2.75
2023-02-02T11:58:24.835Z,2.33
2023-02-02T12:00:55.105Z,3.05
2023-02-02T12:03:36.083Z,2.40
2023-02-02T12:06:19.777Z,2.67
2023-02-02T12:08:47.929Z,2.35
2023-02-02T12:11:30.531Z,2.50
2023-02-02T12:14:11.968Z,2.30
2023-02-02T12:16:53.391Z,2.83
2023-02-02T12:19:38.953Z,2.63
2023-02-02T12:22:20.981Z,2.40
2023-02-02T12:24:56.931Z,3.28
2023-02-02T12:27:34.483Z,2.78
2023-02-02T12:30:25.653Z,2.72
2023-02-02T12:33:12.677Z,2.75
2023-02-02T12:36:15.744Z,2.17
2023-02-02T12:39:02.625Z,2.20
2023-02-02T12:41:44.047Z,2.85
2023-02-02T12:44:18.324Z,3.00
2023-02-02T12:46:55.945Z,2.72
2023-02-02T12:49:47.596Z,2.20
2023-02-02T12:52:31.287Z,2.60
2023-02-02T12:55:11.143Z,1.73
2023-02-02T12:57:51.652Z,2.47
2023-02-02T13:00:52.494Z,2.60
2023-02-02T13:03:31.438Z,2.08
2023-02-02T13:06:24.411Z,2.53
2023-02-02T13:08:59.358Z,2.92
2023-02-02T13:11:38.494Z,2.75
2023-02-02T13:14:10.974Z,2.03
2023-02-02T13:16:44.233Z,2.35
2023-02-02T13:19:18.856Z,2.17
2023-02-02T13:21:49.116Z,2.35
2023-02-02T13:24:27.860Z,1.92
2023-02-02T13:26:58.412Z,2.78
2023-02-02T13:29:34.813Z,2.63
2023-02-02T13:32:20.307Z,1.70
2023-02-02T13:34:52.334Z,2.50
2023-02-02T13:37:27.828Z,2.47
2023-02-02T13:39:59.914Z,1.63
2023-02-02T13:42:38.065Z,2.50
2023-02-02T13:45:21.353Z,2.53
2023-02-02T13:47:54.635Z,2.58
2023-02-02T13:50:30.088Z,2.42
2023-02-02T13:53:33.483Z,1.73
2023-02-02T13:56:21.010Z,2.28
2023-02-02T13:59:00.058Z,1.73
2023-02-02T14:01:28.364Z,2.03
2023-02-02T14:03:58.466Z,2.30
2023-02-02T14:06:28.312Z,2.13
2023-02-02T14:08:58.502Z,2.30
2023-02-02T14:11:32.120Z,1.75
2023-02-02T14:14:24.783Z,1.83
2023-02-02T14:16:55.742Z,2.55
2023-02-02T14:19:50.344Z,2.20
2023-02-02T14:22:21.314Z,2.05
2023-02-02T14:24:51.126Z,2.00
2023-02-02T14:27:55.687Z,2.15
2023-02-02T14:30:30.099Z,1.83
2023-02-02T14:33:38.729Z,2.72
2023-02-02T14:36:13.665Z,2.25
2023-02-02T14:39:00.041Z,2.22
2023-02-02T14:42:07.954Z,2.13
2023-02-02T14:44:38.574Z,1.85
2023-02-02T14:47:50.869Z,2.50
2023-02-02T14:50:23.379Z,2.42
2023-02-02T14:53:02.498Z,2.38
2023-02-02T14:55:30.949Z,3.03
2023-02-02T14:58:01.185Z,2.03
2023-02-02T15:00:34.324Z,2.17
2023-02-02T15:03:47.521Z,2.00
2023-02-02T15:06:27.474Z,2.20
2023-02-02T15:09:33.659Z,1.55
2023-02-02T15:12:29.474Z,2.40
2023-02-02T15:15:05.040Z,2.05
2023-02-02T15:17:48.696Z,1.98
2023-02-02T15:20:23.508Z,1.88
2023-02-02T15:22:57.663Z,2.05
2023-02-02T15:25:30.970Z,2.15
2023-02-02T15:28:02.359Z,2.10
2023-02-02T15:30:34.370Z,1.80
2023-02-02T15:33:08.492Z,4.03
2023-02-02T15:35:38.235Z,3.05
2023-02-02T15:38:13.185Z,2.70
2023-02-02T15:40:41.811Z,3.83
2023-02-02T15:43:13.683Z,5.30
2023-02-02T15:45:46.086Z,3.97
2023-02-02T15:48:24.007Z,11.02
2023-02-02T15:50:55.700Z,6.28
2023-02-02T15:53:26.562Z,8.23
2023-02-02T15:55:55.755Z,5.65
2023-02-02T15:58:29.738Z,4.40
2023-02-02T16:01:00.938Z,3.72
2023-02-02T16:03:37.926Z,3.30
2023-02-02T16:06:08.029Z,3.80
2023-02-02T16:08:39.349Z,2.92
2023-02-02T16:11:11.142Z,3.92
2023-02-02T16:13:41.197Z,6.30
2023-02-02T16:16:24.463Z,4.10
2023-02-02T16:19:13.892Z,20.27
2023-02-02T16:21:46.368Z,18.25
2023-02-02T16:24:20.040Z,5.28
2023-02-02T16:26:48.018Z,8.93
2023-02-02T16:29:18.472Z,5.20
2023-02-02T16:31:47.701Z,6.75
2023-02-02T16:36:45.763Z,2.35
2023-02-02T16:39:17.540Z,2.80
2023-02-02T16:41:49.120Z,2.40
2023-02-02T16:44:30.492Z,2.33
2023-02-02T16:46:58.868Z,3.65
2023-02-02T16:49:29.424Z,3.38
2023-02-02T16:52:12.653Z,3.50
2023-02-02T16:54:45.371Z,3.00
2023-02-02T16:57:19.548Z,2.92
2023-02-02T16:59:51.034Z,2.50
2023-02-02T17:02:28.601Z,2.70
2023-02-02T17:05:03.078Z,2.95
2023-02-02T17:07:32.279Z,2.10
2023-02-02T17:10:23.486Z,2.40
2023-02-02T17:12:51.380Z,2.70
2023-02-02T17:15:34.539Z,3.30
2023-02-02T17:18:03.601Z,4.40
2023-02-02T17:20:34.486Z,2.40
2023-02-02T17:23:04.862Z,2.95
2023-02-02T17:25:37.034Z,3.00
2023-02-02T17:28:08.653Z,2.15
2023-02-02T17:30:36.752Z,2.40
2023-02-02T17:33:05.037Z,2.80
2023-02-02T17:35:51.589Z,2.63
2023-02-02T17:38:21.513Z,3.85
2023-02-02T17:40:49.589Z,3.80
2023-02-02T17:43:17.465Z,3.15
2023-02-02T17:45:45.328Z,3.80
2023-02-02T17:48:14.568Z,5.05
2023-02-02T17:50:44.519Z,3.03
2023-02-02T17:53:13.786Z,3.10
2023-02-02T17:55:43.282Z,3.63
2023-02-02T17:58:13.190Z,4.45
2023-02-02T18:00:42.141Z,5.90
2023-02-02T18:03:12.793Z,3.30
2023-02-02T18:05:43.236Z,4.00
2023-02-02T18:08:13.176Z,3.55
2023-02-02T18:10:41.260Z,3.38
2023-02-02T18:13:10.855Z,3.30
2023-02-02T18:15:41.908Z,3.33
2023-02-02T18:18:12.297Z,3.00
2023-02-02T18:20:42.405Z,2.83
2023-02-02T18:23:10.297Z,3.05
2023-02-02T18:25:39.865Z,4.07
2023-02-02T18:28:07.725Z,3.50
2023-02-02T18:30:35.574Z,3.97
2023-02-02T18:33:03.358Z,3.40
2023-02-02T18:35:31.162Z,3.55
2023-02-02T18:37:58.997Z,3.15
2023-02-02T18:40:26.802Z,3.40
2023-02-02T18:42:55.921Z,4.03
2023-02-02T18:45:24.058Z,3.20
2023-02-02T18:47:52.161Z,5.20
2023-02-02T18:50:21.938Z,4.07
2023-02-02T18:52:49.773Z,5.45
2023-02-02T18:55:17.685Z,6.75
2023-02-02T18:57:45.469Z,4.88
2023-02-02T19:00:15.777Z,7.18
2023-02-02T19:02:43.601Z,5.00
2023-02-02T19:05:29.038Z,4.22
2023-02-02T19:07:57.124Z,4.15
2023-02-02T19:10:26.045Z,5.07
2023-02-02T19:12:56.644Z,4.50
2023-02-02T19:15:26.810Z,3.60
2023-02-02T19:17:56.033Z,4.85
2023-02-02T19:20:28.415Z,4.50
2023-02-02T19:23:01.473Z,5.15
2023-02-02T19:25:29.697Z,4.22
2023-02-02T19:27:57.724Z,4.63
2023-02-02T19:30:27.136Z,4.28
2023-02-02T19:32:55.149Z,4.63
2023-02-02T19:35:26.123Z,5.25
2023-02-02T19:38:01.244Z,3.92
2023-02-02T19:40:29.298Z,6.38
2023-02-02T19:43:00.315Z,16.98
2023-02-02T19:45:32.059Z,5.40
2023-02-02T19:48:02.346Z,7.30
2023-02-02T19:50:37.856Z,5.47
2023-02-02T19:53:14.783Z,5.90
2023-02-02T19:55:43.879Z,5.13
2023-02-02T19:58:17.891Z,8.82
2023-02-02T20:00:47.784Z,6.20
2023-02-02T20:03:19.692Z,5.30
2023-02-02T20:05:49.030Z,6.93
2023-02-02T20:10:51.148Z,5.55
2023-02-02T20:13:21.823Z,6.03
2023-02-02T20:15:54.668Z,9.80
2023-02-02T20:18:28.264Z,8.23
2023-02-02T20:20:57.978Z,6.47
2023-02-02T20:23:32.927Z,6.15
2023-02-02T20:26:03.562Z,9.75
2023-02-02T20:28:39.957Z,9.70
2023-02-02T20:31:11.785Z,25.77
2023-02-02T20:33:42.583Z,19.98
2023-02-02T20:36:38.157Z,12.63
2023-02-02T20:39:23.083Z,11.43
2023-02-02T20:41:51.959Z,9.00
2023-02-02T20:44:19.823Z,7.40
2023-02-02T20:46:49.360Z,9.30
2023-02-02T20:49:17.456Z,8.38
2023-02-02T20:51:45.304Z,11.57
2023-02-02T20:54:13.100Z,11.73
2023-02-02T20:56:41.148Z,8.57
2023-02-02T20:59:08.947Z,6.85
2023-02-02T21:01:36.784Z,8.38
2023-02-02T21:04:07.263Z,8.52
2023-02-02T21:06:35.664Z,13.15
2023-02-02T21:09:03.794Z,7.60
2023-02-02T21:11:31.567Z,8.73
2023-02-02T21:13:59.971Z,10.32
2023-02-02T21:16:27.883Z,10.53
2023-02-02T21:18:55.770Z,8.35
2023-02-02T21:21:25.331Z,8.60
2023-02-02T21:23:53.503Z,12.27
2023-02-02T21:26:23.408Z,7.80
2023-02-02T21:28:51.267Z,6.82
2023-02-02T21:31:19.092Z,10.98
2023-02-02T21:33:48.698Z,10.55
2023-02-02T21:36:29.637Z,9.90
2023-02-02T21:39:03.686Z,8.35
2023-02-02T21:41:34.134Z,7.32
2023-02-02T21:44:01.934Z,9.82
2023-02-02T21:46:34.720Z,13.65
2023-02-02T21:49:02.761Z,9.98
2023-02-02T21:51:35.677Z,7.47
2023-02-02T21:54:19.005Z,6.72
2023-02-02T21:56:46.799Z,7.15
2023-02-02T21:59:17.653Z,8.20
2023-02-02T22:01:47.070Z,9.05
2023-02-02T22:04:23.601Z,8.02
2023-02-02T22:06:54.510Z,10.30
2023-02-02T22:09:24.649Z,6.07
2023-02-02T22:11:58.394Z,6.13
2023-02-02T22:14:37.746Z,5.97
2023-02-02T22:22:19.958Z,5.07
2023-02-02T22:24:50.852Z,5.88
2023-02-02T22:27:21.548Z,5.22
2023-02-02T22:29:50.302Z,5.32
2023-02-02T22:32:18.064Z,5.82
2023-02-02T22:34:45.832Z,4.88
2023-02-02T22:37:13.591Z,5.13
2023-02-02T22:39:43.269Z,4.85
2023-02-02T22:42:11.548Z,4.38
2023-02-02T22:44:39.313Z,4.82
2023-02-02T22:47:07.188Z,5.28
2023-02-02T22:49:34.949Z,5.30
2023-02-02T22:52:02.792Z,4.50
2023-02-02T22:54:31.185Z,4.82
2023-02-02T22:57:00.265Z,4.90
2023-02-02T22:59:28.020Z,4.80
2023-02-02T23:01:55.797Z,4.90
2023-02-02T23:04:23.550Z,4.88
2023-02-02T23:06:51.284Z,4.32
2023-02-02T23:09:19.147Z,4.32
2023-02-02T23:11:49.611Z,4.65
2023-02-02T23:14:18.749Z,3.45
2023-02-02T23:16:46.664Z,4.45
2023-02-02T23:19:14.467Z,4.57
2023-02-02T23:21:42.320Z,3.78
2023-02-02T23:24:10.141Z,3.75
2023-02-02T23:26:37.860Z,4.22
2023-02-02T23:29:05.641Z,4.18
2023-02-02T23:31:34.856Z,3.20
2023-02-02T23:34:02.741Z,3.65
2023-02-02T23:36:30.511Z,3.38
2023-02-02T23:38:58.298Z,3.67
2023-02-02T23:41:26.053Z,3.30
2023-02-02T23:43:54.301Z,3.90
2023-02-02T23:46:22.331Z,3.55
2023-02-02T23:48:51.822Z,3.75
2023-02-02T23:51:19.625Z,3.28
2023-02-02T23:53:47.874Z,3.58
2023-02-02T23:56:15.655Z,3.47
2023-02-02T23:58:43.468Z,3.53
